createdAt,value
2022-12-09T00:01:54.290Z,25.63
2022-12-09T00:04:22.904Z,20.92
2022-12-09T00:06:51.087Z,23.20
2022-12-09T00:09:19.507Z,19.88
2022-12-09T00:11:48.130Z,23.33
2022-12-09T00:14:17.761Z,21.25
2022-12-09T00:16:46.186Z,20.08
2022-12-09T00:19:14.558Z,21.02
2022-12-09T00:21:43.377Z,18.83
2022-12-09T00:24:14.822Z,24.83
2022-12-09T00:26:43.900Z,22.88
2022-12-09T00:29:13.243Z,23.02
2022-12-09T00:31:43.246Z,26.75
2022-12-09T00:34:13.778Z,21.67
2022-12-09T00:36:41.919Z,19.40
2022-12-09T00:39:13.266Z,19.50
2022-12-09T00:41:41.628Z,23.30
2022-12-09T00:44:10.926Z,18.00
2022-12-09T00:46:39.107Z,25.30
2022-12-09T00:49:09.186Z,17.77
2022-12-09T00:51:37.782Z,22.35
2022-12-09T00:54:06.293Z,17.48
2022-12-09T00:56:34.631Z,17.45
2022-12-09T00:59:03.057Z,17.33
2022-12-09T01:01:31.612Z,16.88
2022-12-09T01:03:59.733Z,15.77
2022-12-09T01:06:30.018Z,19.15
2022-12-09T01:08:58.850Z,18.77
2022-12-09T01:11:28.950Z,18.58
2022-12-09T01:14:01.203Z,19.23
2022-12-09T01:16:32.517Z,23.58
2022-12-09T01:19:03.668Z,20.20
2022-12-09T01:21:35.481Z,23.65
2022-12-09T01:24:10.241Z,21.77
2022-12-09T01:26:39.360Z,21.60
2022-12-09T01:29:07.518Z,17.80
2022-12-09T01:31:36.640Z,17.50
2022-12-09T01:34:05.756Z,20.05
2022-12-09T01:36:35.783Z,19.75
2022-12-09T01:39:05.716Z,22.10
2022-12-09T01:41:35.737Z,20.05
2022-12-09T01:44:16.227Z,20.48
2022-12-09T01:46:45.432Z,20.23
2022-12-09T01:49:18.318Z,25.38
2022-12-09T01:51:55.796Z,19.00
2022-12-09T01:54:24.559Z,22.25
2022-12-09T01:56:53.524Z,24.38
2022-12-09T01:59:22.913Z,21.55
2022-12-09T02:01:54.231Z,21.05
2022-12-09T02:04:22.392Z,23.90
2022-12-09T02:06:52.788Z,28.80
2022-12-09T02:09:22.286Z,20.63
2022-12-09T02:12:05.445Z,23.52
2022-12-09T02:14:40.486Z,19.48
2022-12-09T02:17:26.075Z,21.45
2022-12-09T02:20:05.785Z,17.98
2022-12-09T02:22:40.455Z,25.35
2022-12-09T02:25:19.296Z,23.50
2022-12-09T02:27:51.940Z,22.17
2022-12-09T02:30:23.232Z,23.02
2022-12-09T02:33:17.370Z,22.80
2022-12-09T02:35:54.970Z,21.17
2022-12-09T02:38:28.238Z,22.25
2022-12-09T02:41:01.537Z,25.15
2022-12-09T02:43:32.879Z,21.08
2022-12-09T02:46:02.980Z,24.50
2022-12-09T02:48:36.684Z,26.65
2022-12-09T02:51:11.309Z,20.92
2022-12-09T02:53:42.983Z,23.17
2022-12-09T02:56:13.846Z,20.48
2022-12-09T02:58:42.257Z,20.77
2022-12-09T03:01:22.011Z,21.08
2022-12-09T03:03:53.433Z,20.70
2022-12-09T03:06:29.648Z,27.80
2022-12-09T03:09:02.667Z,24.10
2022-12-09T03:11:33.653Z,28.48
2022-12-09T03:14:06.960Z,27.35
2022-12-09T03:16:38.490Z,27.85
2022-12-09T03:19:10.717Z,24.15
2022-12-09T03:21:43.495Z,26.20
2022-12-09T03:24:15.341Z,20.85
2022-12-09T03:26:44.400Z,24.05
2022-12-09T03:29:17.008Z,26.27
2022-12-09T03:31:47.216Z,27.10
2022-12-09T03:34:18.331Z,25.08
2022-12-09T03:36:51.376Z,26.33
2022-12-09T03:39:26.576Z,26.88
2022-12-09T03:41:58.332Z,31.80
2022-12-09T03:44:33.700Z,27.92
2022-12-09T03:47:04.575Z,31.92
2022-12-09T03:49:33.239Z,24.50
2022-12-09T03:52:09.342Z,30.00
2022-12-09T03:54:44.591Z,34.08
2022-12-09T03:57:18.692Z,30.73
2022-12-09T03:59:54.788Z,27.65
2022-12-09T04:02:23.668Z,26.88
2022-12-09T04:04:52.638Z,24.35
2022-12-09T04:07:22.318Z,24.40
2022-12-09T04:09:50.710Z,30.02
2022-12-09T04:12:18.918Z,26.98
2022-12-09T04:14:47.273Z,25.38
2022-12-09T04:17:15.569Z,24.55
2022-12-09T04:19:43.872Z,27.75
2022-12-09T04:22:15.091Z,25.30
2022-12-09T04:24:45.223Z,26.20
2022-12-09T04:27:13.872Z,24.35
2022-12-09T04:29:42.272Z,28.15
2022-12-09T04:32:10.499Z,24.52
2022-12-09T04:34:38.567Z,29.92
2022-12-09T04:37:08.739Z,19.73
2022-12-09T04:39:36.872Z,22.75
2022-12-09T04:42:06.383Z,22.58
2022-12-09T04:44:34.679Z,22.80
2022-12-09T04:47:02.757Z,22.25
2022-12-09T04:49:30.965Z,32.35
2022-12-09T04:52:01.589Z,27.58
2022-12-09T04:54:29.776Z,32.13
2022-12-09T04:56:57.825Z,39.17
2022-12-09T04:59:31.066Z,30.67
2022-12-09T05:01:59.488Z,24.15
2022-12-09T05:04:28.039Z,25.42
2022-12-09T05:06:56.505Z,30.40
2022-12-09T05:09:24.687Z,26.63
2022-12-09T05:11:54.344Z,29.98
2022-12-09T05:14:23.628Z,29.90
2022-12-09T05:16:53.235Z,31.42
2022-12-09T05:19:21.909Z,37.33
2022-12-09T05:21:50.260Z,31.40
2022-12-09T05:24:18.406Z,30.45
2022-12-09T05:26:46.782Z,33.17
2022-12-09T05:29:20.861Z,39.25
2022-12-09T05:31:51.738Z,42.13
2022-12-09T05:34:21.628Z,33.97
2022-12-09T05:36:50.259Z,38.00
2022-12-09T05:39:18.757Z,34.33
2022-12-09T05:41:47.945Z,35.53
2022-12-09T05:44:16.477Z,34.05
2022-12-09T05:46:47.172Z,45.13
2022-12-09T05:49:16.123Z,42.22
2022-12-09T05:51:45.528Z,42.25
2022-12-09T05:54:13.742Z,43.53
2022-12-09T05:56:47.891Z,46.72
2022-12-09T05:59:17.179Z,42.22
2022-12-09T06:01:45.778Z,39.10
2022-12-09T06:04:14.483Z,40.65
2022-12-09T06:06:43.293Z,34.78
2022-12-09T06:09:15.415Z,50.28
2022-12-09T06:11:44.376Z,41.63
2022-12-09T06:14:15.070Z,43.55
2022-12-09T06:16:43.409Z,45.47
2022-12-09T06:19:12.391Z,50.50
2022-12-09T06:21:41.660Z,44.78
2022-12-09T06:24:11.718Z,40.97
2022-12-09T06:26:41.794Z,44.90
2022-12-09T06:29:11.092Z,37.13
2022-12-09T06:31:39.371Z,49.47
2022-12-09T06:34:07.612Z,54.38
2022-12-09T06:36:36.296Z,41.40
2022-12-09T06:39:10.623Z,44.97
2022-12-09T06:41:42.167Z,42.42
2022-12-09T06:44:14.815Z,45.65
2022-12-09T06:46:48.688Z,47.88
2022-12-09T06:49:17.358Z,43.70
2022-12-09T06:51:45.668Z,49.95
2022-12-09T06:54:14.129Z,43.50
2022-12-09T06:56:44.225Z,39.78
2022-12-09T06:59:13.150Z,40.38
2022-12-09T07:01:41.884Z,39.05
2022-12-09T07:04:14.634Z,37.60
2022-12-09T07:06:45.452Z,44.85
2022-12-09T07:09:16.464Z,46.47
2022-12-09T07:11:47.351Z,46.17
2022-12-09T07:14:18.122Z,41.38
2022-12-09T07:16:47.056Z,45.63
2022-12-09T07:19:21.210Z,48.53
2022-12-09T07:21:50.836Z,42.15
2022-12-09T07:24:20.769Z,42.78
2022-12-09T07:26:51.559Z,49.17
2022-12-09T07:29:20.767Z,46.97
2022-12-09T07:31:49.537Z,44.70
2022-12-09T07:34:18.620Z,42.05
2022-12-09T07:36:46.877Z,47.17
2022-12-09T07:39:17.246Z,54.58
2022-12-09T07:41:48.431Z,53.15
2022-12-09T07:44:18.696Z,47.42
2022-12-09T07:46:47.225Z,44.05
2022-12-09T07:49:16.954Z,41.47
2022-12-09T07:51:46.470Z,46.92
2022-12-09T07:54:16.380Z,45.40
2022-12-09T07:56:44.999Z,36.95
2022-12-09T07:59:15.234Z,34.92
2022-12-09T08:01:46.003Z,28.65
2022-12-09T08:04:14.672Z,25.55
2022-12-09T08:06:43.502Z,28.05
2022-12-09T08:09:14.786Z,26.98
2022-12-09T08:11:43.520Z,29.35
2022-12-09T08:14:13.474Z,26.33
2022-12-09T08:16:44.718Z,29.45
2022-12-09T08:19:14.058Z,24.10
2022-12-09T08:21:43.549Z,28.23
2022-12-09T08:24:13.089Z,27.52
2022-12-09T08:26:43.136Z,24.50
2022-12-09T08:29:14.389Z,26.98
2022-12-09T08:31:45.329Z,27.98
2022-12-09T08:34:15.275Z,28.02
2022-12-09T08:36:44.373Z,26.88
2022-12-09T08:39:13.504Z,27.45
2022-12-09T08:41:43.916Z,24.15
2022-12-09T08:44:14.407Z,30.20
2022-12-09T08:46:46.468Z,29.85
2022-12-09T08:49:18.959Z,25.95
2022-12-09T08:51:49.209Z,31.67
2022-12-09T08:54:18.127Z,28.23
2022-12-09T08:56:47.618Z,31.27
2022-12-09T08:59:16.965Z,26.40
2022-12-09T09:01:46.961Z,30.00
2022-12-09T09:04:18.267Z,26.85
2022-12-09T09:06:50.184Z,23.08
2022-12-09T09:09:20.300Z,30.95
2022-12-09T09:11:49.600Z,26.20
2022-12-09T09:14:18.551Z,26.23
2022-12-09T09:16:48.571Z,23.52
2022-12-09T09:19:20.647Z,24.77
2022-12-09T09:21:49.980Z,28.27
2022-12-09T09:24:20.659Z,20.38
2022-12-09T09:26:51.015Z,30.30
2022-12-09T09:29:22.259Z,33.85
2022-12-09T09:31:54.556Z,34.08
2022-12-09T09:34:24.030Z,34.88
2022-12-09T09:36:52.794Z,36.05
2022-12-09T09:39:21.634Z,33.75
2022-12-09T09:41:53.497Z,37.03
2022-12-09T09:44:29.585Z,24.75
2022-12-09T09:47:01.171Z,29.58
2022-12-09T09:49:36.885Z,30.70
2022-12-09T09:52:09.784Z,27.90
2022-12-09T09:54:38.708Z,28.05
2022-12-09T09:57:15.097Z,25.83
2022-12-09T09:59:58.822Z,38.08
2022-12-09T10:02:59.459Z,28.83
2022-12-09T10:05:32.837Z,36.22
2022-12-09T10:08:17.469Z,28.58
2022-12-09T10:10:59.762Z,32.33
2022-12-09T10:13:39.757Z,30.33
2022-12-09T10:16:15.766Z,31.48
2022-12-09T10:19:07.411Z,34.20
2022-12-09T10:21:42.367Z,31.67
2022-12-09T10:24:21.164Z,28.30
2022-12-09T10:27:00.841Z,37.00
2022-12-09T10:29:47.746Z,47.95
2022-12-09T10:32:26.540Z,27.60
2022-12-09T10:34:56.407Z,21.00
2022-12-09T10:37:31.651Z,25.58
2022-12-09T10:40:15.508Z,26.35
2022-12-09T10:43:04.859Z,25.45
2022-12-09T10:46:00.160Z,24.42
2022-12-09T10:48:33.057Z,25.60
2022-12-09T10:51:07.261Z,31.10
2022-12-09T10:53:37.605Z,27.35
2022-12-09T10:56:07.865Z,23.30
2022-12-09T10:58:36.069Z,28.17
2022-12-09T11:01:10.261Z,30.70
2022-12-09T11:03:41.519Z,26.58
2022-12-09T11:06:23.546Z,21.30
2022-12-09T11:08:58.025Z,22.65
2022-12-09T11:11:42.941Z,28.13
2022-12-09T11:14:23.212Z,22.35
2022-12-09T11:16:54.459Z,25.83
2022-12-09T11:19:34.306Z,31.40
2022-12-09T11:22:24.881Z,21.73
2022-12-09T11:24:56.732Z,25.40
2022-12-09T11:27:31.219Z,25.25
2022-12-09T11:30:13.199Z,22.20
2022-12-09T11:32:57.141Z,23.27
2022-12-09T11:35:34.051Z,26.83
2022-12-09T11:38:15.411Z,28.02
2022-12-09T11:40:44.042Z,30.45
2022-12-09T11:43:12.317Z,27.45
2022-12-09T11:45:41.823Z,69.15
2022-12-09T11:48:30.251Z,29.10
2022-12-09T11:51:03.091Z,23.05
2022-12-09T11:53:34.389Z,24.60
2022-12-09T11:56:08.591Z,27.55
2022-12-09T11:58:43.557Z,23.65
2022-12-09T12:01:17.756Z,26.15
2022-12-09T12:03:49.643Z,31.27
2022-12-09T12:06:22.818Z,27.25
2022-12-09T12:08:55.883Z,27.35
2022-12-09T12:11:29.821Z,29.08
2022-12-09T12:14:04.783Z,25.60
2022-12-09T12:16:39.652Z,21.92
2022-12-09T12:19:14.780Z,26.73
2022-12-09T12:21:57.137Z,32.00
2022-12-09T12:25:17.688Z,26.25
2022-12-09T12:28:02.359Z,30.70
2022-12-09T12:30:39.933Z,32.45
2022-12-09T12:34:07.788Z,29.02
2022-12-09T12:36:25.077Z,25.17
2022-12-09T12:39:07.091Z,27.23
2022-12-09T12:41:47.595Z,24.83
2022-12-09T12:45:09.503Z,26.02
2022-12-09T12:47:45.629Z,26.77
2022-12-09T12:50:33.348Z,23.60
2022-12-09T12:53:11.175Z,23.38
2022-12-09T12:55:50.241Z,21.13
2022-12-09T12:58:50.690Z,27.30
2022-12-09T13:01:30.155Z,27.85
2022-12-09T13:04:15.092Z,19.58
2022-12-09T13:06:49.330Z,22.55
2022-12-09T13:09:23.961Z,21.80
2022-12-09T13:12:01.034Z,28.67
2022-12-09T13:14:37.635Z,25.55
2022-12-09T13:17:09.733Z,23.40
2022-12-09T13:19:42.794Z,25.77
2022-12-09T13:22:20.478Z,28.30
2022-12-09T13:25:00.087Z,24.58
2022-12-09T13:27:38.574Z,23.50
2022-12-09T13:30:16.988Z,22.05
2022-12-09T13:33:18.790Z,27.75
2022-12-09T13:35:56.136Z,20.58
2022-12-09T13:38:27.363Z,33.42
2022-12-09T13:40:55.475Z,23.30
2022-12-09T13:43:27.102Z,22.98
2022-12-09T13:45:59.206Z,22.55
2022-12-09T13:48:46.385Z,26.33
2022-12-09T13:51:15.960Z,24.48
2022-12-09T13:53:50.566Z,33.67
2022-12-09T13:56:26.746Z,25.08
2022-12-09T13:59:33.993Z,27.52
2022-12-09T14:02:15.095Z,28.75
2022-12-09T14:04:53.335Z,29.15
2022-12-09T14:07:31.770Z,34.78
2022-12-09T14:10:00.371Z,24.13
2022-12-09T14:13:19.140Z,28.63
2022-12-09T14:15:48.879Z,28.55
2022-12-09T14:18:32.981Z,28.45
2022-12-09T14:21:30.475Z,37.63
2022-12-09T14:24:33.196Z,39.75
2022-12-09T14:27:16.190Z,25.55
2022-12-09T14:29:56.330Z,28.55
2022-12-09T14:32:31.879Z,27.73
2022-12-09T14:35:06.146Z,24.65
2022-12-09T14:37:46.758Z,24.10
2022-12-09T14:40:45.727Z,27.02
2022-12-09T14:43:29.054Z,25.63
2022-12-09T14:46:01.098Z,29.48
2022-12-09T14:48:34.543Z,34.72
2022-12-09T14:51:18.189Z,28.45
2022-12-09T14:53:51.250Z,33.05
2022-12-09T14:56:21.743Z,27.98
2022-12-09T14:58:51.847Z,27.92
2022-12-09T15:01:20.212Z,32.58
2022-12-09T15:03:53.824Z,27.88
2022-12-09T15:06:26.808Z,27.63
2022-12-09T15:08:58.266Z,27.15
2022-12-09T15:11:29.515Z,31.25
2022-12-09T15:14:19.351Z,28.10
2022-12-09T15:16:50.638Z,33.78
2022-12-09T15:19:51.137Z,35.55
2022-12-09T15:22:21.716Z,29.25
2022-12-09T15:24:51.295Z,35.20
2022-12-09T15:27:21.646Z,30.92
2022-12-09T15:29:50.093Z,29.88
2022-12-09T15:32:23.659Z,33.25
2022-12-09T15:34:53.105Z,35.35
2022-12-09T15:37:27.914Z,33.60
2022-12-09T15:40:01.390Z,36.50
2022-12-09T15:42:33.837Z,43.30
2022-12-09T15:45:09.974Z,38.38
2022-12-09T15:47:41.482Z,39.85
2022-12-09T15:50:18.337Z,38.17
2022-12-09T15:52:52.502Z,44.00
2022-12-09T15:55:23.571Z,38.63
2022-12-09T15:57:54.943Z,33.95
2022-12-09T16:00:23.434Z,40.45
2022-12-09T16:02:52.396Z,38.83
2022-12-09T16:05:25.689Z,39.40
2022-12-09T16:07:59.026Z,45.97
2022-12-09T16:10:29.045Z,35.97
2022-12-09T16:13:12.192Z,37.00
2022-12-09T16:15:46.934Z,37.05
2022-12-09T16:18:19.033Z,35.50
2022-12-09T16:21:02.523Z,32.50
2022-12-09T16:23:32.324Z,37.53
2022-12-09T16:26:07.241Z,35.50
2022-12-09T16:28:36.622Z,33.97
2022-12-09T16:31:18.436Z,39.85
2022-12-09T16:33:49.508Z,31.02
2022-12-09T16:36:21.400Z,39.00
2022-12-09T16:39:32.224Z,34.20
2022-12-09T16:42:03.075Z,33.65
2022-12-09T16:44:34.409Z,35.63
2022-12-09T16:47:14.716Z,35.53
2022-12-09T16:49:46.509Z,38.75
2022-12-09T16:52:16.497Z,34.42
2022-12-09T16:54:47.430Z,35.17
2022-12-09T16:57:16.978Z,35.25
2022-12-09T16:59:45.958Z,32.35
2022-12-09T17:02:20.677Z,38.92
2022-12-09T17:04:50.124Z,33.83
2022-12-09T17:07:18.093Z,27.45
2022-12-09T17:09:48.093Z,43.03
2022-12-09T17:12:16.441Z,38.00
2022-12-09T17:14:44.541Z,31.65
2022-12-09T17:17:12.502Z,30.70
2022-12-09T17:19:42.159Z,39.70
2022-12-09T17:22:10.191Z,41.22
2022-12-09T17:24:38.931Z,34.25
2022-12-09T17:27:08.471Z,32.60
2022-12-09T17:29:37.268Z,36.65
2022-12-09T17:32:05.797Z,30.42
2022-12-09T17:34:34.022Z,38.88
2022-12-09T17:37:02.220Z,37.92
2022-12-09T17:39:30.199Z,39.45
2022-12-09T17:41:58.213Z,49.13
2022-12-09T17:44:27.841Z,36.85
2022-12-09T17:46:56.889Z,38.92
2022-12-09T17:49:25.257Z,39.03
2022-12-09T17:51:53.472Z,43.30
2022-12-09T17:54:21.696Z,38.00
2022-12-09T17:56:49.730Z,42.33
2022-12-09T17:59:19.061Z,39.85
2022-12-09T18:01:48.789Z,39.72
2022-12-09T18:04:16.927Z,42.30
2022-12-09T18:06:46.889Z,41.90
2022-12-09T18:09:16.932Z,38.75
2022-12-09T18:11:46.108Z,40.80
2022-12-09T18:14:14.827Z,39.22
2022-12-09T18:16:43.187Z,44.47
2022-12-09T18:19:16.624Z,51.13
2022-12-09T18:21:44.967Z,40.33
2022-12-09T18:24:13.858Z,40.17
2022-12-09T18:26:42.615Z,43.30
2022-12-09T18:29:11.434Z,44.72
2022-12-09T18:31:39.834Z,42.05
2022-12-09T18:34:08.336Z,41.88
2022-12-09T18:36:38.049Z,42.45
2022-12-09T18:39:07.030Z,46.33
2022-12-09T18:41:35.786Z,45.38
2022-12-09T18:44:05.302Z,45.13
2022-12-09T18:46:36.510Z,39.60
2022-12-09T18:49:07.286Z,39.60
2022-12-09T18:51:37.584Z,42.83
2022-12-09T18:54:07.218Z,41.75
2022-12-09T18:56:36.428Z,42.55
2022-12-09T18:59:07.503Z,46.30
2022-12-09T19:01:39.234Z,46.65
2022-12-09T19:04:09.758Z,43.80
2022-12-09T19:06:41.161Z,45.47
2022-12-09T19:09:12.102Z,42.13
2022-12-09T19:11:42.082Z,49.42
2022-12-09T19:14:10.813Z,42.25
2022-12-09T19:16:39.453Z,45.38
2022-12-09T19:19:10.257Z,46.33
2022-12-09T19:21:40.375Z,46.03
2022-12-09T19:24:13.472Z,42.72
2022-12-09T19:26:42.698Z,37.60
2022-12-09T19:29:11.510Z,46.22
2022-12-09T19:31:41.414Z,45.80
2022-12-09T19:34:13.561Z,43.92
2022-12-09T19:36:43.805Z,36.25
2022-12-09T19:39:13.682Z,48.72
2022-12-09T19:41:43.033Z,43.67
2022-12-09T19:44:15.402Z,46.67
2022-12-09T19:46:46.841Z,51.35
2022-12-09T19:49:18.901Z,44.25
2022-12-09T19:51:48.783Z,45.55
2022-12-09T19:54:17.388Z,49.38
2022-12-09T19:56:46.007Z,55.40
2022-12-09T19:59:14.705Z,50.50
2022-12-09T20:01:44.507Z,52.40
2022-12-09T20:04:47.108Z,63.88
2022-12-09T20:07:07.788Z,51.13
2022-12-09T20:09:37.798Z,60.85
2022-12-09T20:12:06.302Z,53.17
2022-12-09T20:14:34.496Z,50.85
2022-12-09T20:17:02.473Z,57.55
2022-12-09T20:19:32.361Z,50.42
2022-12-09T20:22:00.595Z,56.83
2022-12-09T20:24:30.373Z,57.25
2022-12-09T20:26:58.737Z,63.72
2022-12-09T20:29:27.642Z,59.33
2022-12-09T20:31:58.368Z,56.67
2022-12-09T20:34:26.707Z,48.22
2022-12-09T20:36:55.082Z,60.47
2022-12-09T20:39:23.099Z,53.42
2022-12-09T20:41:52.499Z,56.08
2022-12-09T20:44:21.062Z,57.97
2022-12-09T20:46:51.434Z,58.72
2022-12-09T20:49:25.408Z,59.92
2022-12-09T20:51:54.125Z,66.00
2022-12-09T20:54:22.175Z,60.17
2022-12-09T20:56:50.375Z,54.15
2022-12-09T20:59:19.703Z,57.13
2022-12-09T21:01:47.843Z,57.17
2022-12-09T21:04:16.892Z,64.50
2022-12-09T21:06:45.155Z,66.80
2022-12-09T21:09:17.531Z,67.85
2022-12-09T21:11:46.482Z,71.00
2022-12-09T21:14:18.073Z,53.42
2022-12-09T21:16:50.410Z,63.42
2022-12-09T21:19:24.433Z,64.72
2022-12-09T21:21:53.653Z,76.10
2022-12-09T21:24:23.213Z,58.53
2022-12-09T21:26:53.262Z,64.15
2022-12-09T21:29:22.323Z,61.10
2022-12-09T21:31:54.527Z,65.15
2022-12-09T21:34:24.287Z,61.08
2022-12-09T21:36:52.751Z,73.32
2022-12-09T21:39:21.513Z,76.70
2022-12-09T21:41:49.594Z,66.88
2022-12-09T21:44:19.578Z,70.20
2022-12-09T21:46:47.846Z,74.78
2022-12-09T21:49:17.263Z,73.03
2022-12-09T21:51:45.965Z,70.32
2022-12-09T21:54:13.990Z,82.78
2022-12-09T21:56:42.597Z,84.05
2022-12-09T21:59:12.224Z,76.97
2022-12-09T22:01:42.222Z,80.05
2022-12-09T22:04:12.379Z,68.63
2022-12-09T22:06:42.070Z,77.90
2022-12-09T22:09:11.673Z,75.63
2022-12-09T22:11:40.358Z,91.13
2022-12-09T22:14:10.479Z,79.97
2022-12-09T22:16:42.338Z,77.90
2022-12-09T22:19:14.293Z,88.20
2022-12-09T22:21:44.002Z,68.25
2022-12-09T22:24:14.220Z,72.50
2022-12-09T22:26:44.477Z,75.00
2022-12-09T22:29:14.106Z,71.47
2022-12-09T22:31:42.936Z,84.57
2022-12-09T22:34:13.074Z,93.03
2022-12-09T22:36:42.085Z,75.15
2022-12-09T22:39:13.621Z,73.85
2022-12-09T22:41:41.649Z,80.82
2022-12-09T22:44:12.608Z,69.43
2022-12-09T22:46:42.122Z,77.90
2022-12-09T22:49:13.074Z,75.78
2022-12-09T22:51:41.499Z,82.45
2022-12-09T22:54:11.915Z,79.57
2022-12-09T22:56:42.674Z,72.43
2022-12-09T22:59:11.816Z,76.07
2022-12-09T23:01:39.957Z,76.32
2022-12-09T23:04:09.619Z,92.07
2022-12-09T23:06:39.186Z,93.32
2022-12-09T23:09:09.274Z,72.18
2022-12-09T23:11:38.810Z,89.78
2022-12-09T23:14:07.156Z,82.28
2022-12-09T23:16:35.330Z,95.00
2022-12-09T23:19:03.370Z,94.05
2022-12-09T23:21:33.719Z,72.22
2022-12-09T23:24:04.410Z,67.75
2022-12-09T23:26:35.922Z,81.60
2022-12-09T23:29:07.528Z,92.00
2022-12-09T23:31:37.819Z,80.13
2022-12-09T23:34:08.225Z,78.80
2022-12-09T23:36:38.463Z,68.15
2022-12-09T23:39:10.921Z,102.57
2022-12-09T23:41:39.946Z,83.60
2022-12-09T23:44:11.000Z,59.10
2022-12-09T23:46:40.120Z,72.03
2022-12-09T23:49:09.443Z,70.38
2022-12-09T23:51:40.585Z,72.25
2022-12-09T23:54:10.076Z,74.55
2022-12-09T23:56:40.653Z,82.45
2022-12-09T23:59:14.278Z,84.20
